sensor_id;sensor_type;location;lat;lon;timestamp;P1;durP1;ratioP1;P2;durP2;ratioP2
68947;SDS011;55996;49.546;7.400;2023-06-22T00:02:15;8.47;;;7.67;;
68947;SDS011;55996;49.546;7.400;2023-06-22T00:04:40;8.00;;;7.20;;
68947;SDS011;55996;49.546;7.400;2023-06-22T00:07:05;8.55;;;7.25;;
68947;SDS011;55996;49.546;7.400;2023-06-22T00:09:31;8.95;;;7.38;;
68947;SDS011;55996;49.546;7.400;2023-06-22T00:11:57;12.20;;;8.32;;
68947;SDS011;55996;49.546;7.400;2023-06-22T00:14:23;8.48;;;7.57;;
68947;SDS011;55996;49.546;7.400;2023-06-22T00:16:48;10.47;;;7.90;;
68947;SDS011;55996;49.546;7.400;2023-06-22T00:19:14;11.17;;;8.13;;
68947;SDS011;55996;49.546;7.400;2023-06-22T00:21:40;9.83;;;8.00;;
68947;SDS011;55996;49.546;7.400;2023-06-22T00:24:07;8.73;;;7.78;;
68947;SDS011;55996;49.546;7.400;2023-06-22T00:26:33;8.40;;;7.53;;
68947;SDS011;55996;49.546;7.400;2023-06-22T00:28:58;8.57;;;7.43;;
68947;SDS011;55996;49.546;7.400;2023-06-22T00:31:24;11.73;;;8.03;;
68947;SDS011;55996;49.546;7.400;2023-06-22T00:33:49;8.77;;;7.87;;
68947;SDS011;55996;49.546;7.400;2023-06-22T00:36:16;11.20;;;7.77;;
68947;SDS011;55996;49.546;7.400;2023-06-22T00:38:44;9.60;;;7.88;;
68947;SDS011;55996;49.546;7.400;2023-06-22T00:41:09;9.45;;;7.80;;
68947;SDS011;55996;49.546;7.400;2023-06-22T00:43:34;9.77;;;7.77;;
68947;SDS011;55996;49.546;7.400;2023-06-22T00:46:00;8.50;;;7.60;;
68947;SDS011;55996;49.546;7.400;2023-06-22T00:48:26;9.65;;;8.32;;
68947;SDS011;55996;49.546;7.400;2023-06-22T00:50:51;8.70;;;7.80;;
68947;SDS011;55996;49.546;7.400;2023-06-22T00:53:18;8.90;;;7.95;;
68947;SDS011;55996;49.546;7.400;2023-06-22T00:55:44;9.25;;;8.35;;
68947;SDS011;55996;49.546;7.400;2023-06-22T00:58:12;8.40;;;7.60;;
68947;SDS011;55996;49.546;7.400;2023-06-22T01:00:39;8.00;;;7.28;;
68947;SDS011;55996;49.546;7.400;2023-06-22T01:03:05;10.63;;;7.93;;
68947;SDS011;55996;49.546;7.400;2023-06-22T01:05:34;8.23;;;7.43;;
68947;SDS011;55996;49.546;7.400;2023-06-22T01:11:11;8.43;;;7.63;;
68947;SDS011;55996;49.546;7.400;2023-06-22T01:16:35;9.47;;;7.97;;
68947;SDS011;55996;49.546;7.400;2023-06-22T01:22:10;8.37;;;7.30;;
68947;SDS011;55996;49.546;7.400;2023-06-22T01:27:14;13.67;;;8.30;;
68947;SDS011;55996;49.546;7.400;2023-06-22T01:30:02;8.33;;;7.37;;
68947;SDS011;55996;49.546;7.400;2023-06-22T01:32:31;9.60;;;8.50;;
68947;SDS011;55996;49.546;7.400;2023-06-22T01:35:00;9.37;;;8.13;;
68947;SDS011;55996;49.546;7.400;2023-06-22T01:37:28;8.47;;;7.60;;
68947;SDS011;55996;49.546;7.400;2023-06-22T01:39:56;9.73;;;8.73;;
68947;SDS011;55996;49.546;7.400;2023-06-22T01:42:23;10.47;;;9.13;;
68947;SDS011;55996;49.546;7.400;2023-06-22T01:44:50;10.30;;;9.13;;
68947;SDS011;55996;49.546;7.400;2023-06-22T01:47:18;10.63;;;8.23;;
68947;SDS011;55996;49.546;7.400;2023-06-22T01:49:44;9.27;;;8.23;;
68947;SDS011;55996;49.546;7.400;2023-06-22T01:52:10;10.93;;;8.77;;
68947;SDS011;55996;49.546;7.400;2023-06-22T01:54:37;8.93;;;8.13;;
68947;SDS011;55996;49.546;7.400;2023-06-22T01:57:05;11.10;;;9.20;;
68947;SDS011;55996;49.546;7.400;2023-06-22T02:00:14;10.07;;;9.07;;
68947;SDS011;55996;49.546;7.400;2023-06-22T02:02:30;9.60;;;8.60;;
68947;SDS011;55996;49.546;7.400;2023-06-22T02:05:00;9.80;;;8.83;;
68947;SDS011;55996;49.546;7.400;2023-06-22T02:07:44;9.97;;;8.57;;
68947;SDS011;55996;49.546;7.400;2023-06-22T02:10:17;12.50;;;8.40;;
68947;SDS011;55996;49.546;7.400;2023-06-22T02:12:45;11.10;;;8.70;;
68947;SDS011;55996;49.546;7.400;2023-06-22T02:15:13;12.03;;;8.37;;
68947;SDS011;55996;49.546;7.400;2023-06-22T02:17:39;10.70;;;8.17;;
68947;SDS011;55996;49.546;7.400;2023-06-22T02:20:13;9.47;;;8.53;;
68947;SDS011;55996;49.546;7.400;2023-06-22T02:22:39;9.07;;;8.27;;
68947;SDS011;55996;49.546;7.400;2023-06-22T02:25:05;9.63;;;8.67;;
68947;SDS011;55996;49.546;7.400;2023-06-22T02:27:31;9.67;;;8.67;;
68947;SDS011;55996;49.546;7.400;2023-06-22T02:29:57;10.90;;;8.40;;
68947;SDS011;55996;49.546;7.400;2023-06-22T02:32:22;11.07;;;8.87;;
68947;SDS011;55996;49.546;7.400;2023-06-22T02:34:48;10.43;;;8.73;;
68947;SDS011;55996;49.546;7.400;2023-06-22T02:37:13;9.97;;;8.23;;
68947;SDS011;55996;49.546;7.400;2023-06-22T02:39:42;9.23;;;7.97;;
68947;SDS011;55996;49.546;7.400;2023-06-22T02:42:08;10.33;;;8.47;;
68947;SDS011;55996;49.546;7.400;2023-06-22T02:44:35;9.17;;;8.27;;
68947;SDS011;55996;49.546;7.400;2023-06-22T02:47:01;11.00;;;8.70;;
68947;SDS011;55996;49.546;7.400;2023-06-22T02:49:26;9.80;;;8.27;;
68947;SDS011;55996;49.546;7.400;2023-06-22T02:51:52;10.17;;;8.33;;
68947;SDS011;55996;49.546;7.400;2023-06-22T02:54:18;14.77;;;8.73;;
68947;SDS011;55996;49.546;7.400;2023-06-22T02:56:43;9.10;;;7.90;;
68947;SDS011;55996;49.546;7.400;2023-06-22T02:59:09;8.50;;;7.70;;
68947;SDS011;55996;49.546;7.400;2023-06-22T03:01:36;9.93;;;8.13;;
68947;SDS011;55996;49.546;7.400;2023-06-22T03:04:07;8.87;;;8.07;;
68947;SDS011;55996;49.546;7.400;2023-06-22T03:06:36;9.33;;;8.17;;
68947;SDS011;55996;49.546;7.400;2023-06-22T03:09:04;9.03;;;8.23;;
68947;SDS011;55996;49.546;7.400;2023-06-22T03:11:30;8.80;;;7.90;;
68947;SDS011;55996;49.546;7.400;2023-06-22T03:13:56;9.43;;;8.53;;
68947;SDS011;55996;49.546;7.400;2023-06-22T03:16:22;8.90;;;8.00;;
68947;SDS011;55996;49.546;7.400;2023-06-22T03:18:47;9.93;;;7.90;;
68947;SDS011;55996;49.546;7.400;2023-06-22T03:21:13;9.50;;;8.50;;
68947;SDS011;55996;49.546;7.400;2023-06-22T03:23:40;9.47;;;8.53;;
68947;SDS011;55996;49.546;7.400;2023-06-22T03:26:06;9.20;;;8.30;;
68947;SDS011;55996;49.546;7.400;2023-06-22T03:28:32;8.67;;;7.87;;
68947;SDS011;55996;49.546;7.400;2023-06-22T03:30:57;9.77;;;8.40;;
68947;SDS011;55996;49.546;7.400;2023-06-22T03:33:23;11.53;;;8.50;;
68947;SDS011;55996;49.546;7.400;2023-06-22T03:35:49;10.43;;;8.17;;
68947;SDS011;55996;49.546;7.400;2023-06-22T03:38:15;10.03;;;8.70;;
68947;SDS011;55996;49.546;7.400;2023-06-22T03:40:41;9.27;;;8.20;;
68947;SDS011;55996;49.546;7.400;2023-06-22T03:43:07;9.53;;;8.57;;
68947;SDS011;55996;49.546;7.400;2023-06-22T03:45:32;8.73;;;7.83;;
68947;SDS011;55996;49.546;7.400;2023-06-22T03:47:57;8.93;;;8.03;;
68947;SDS011;55996;49.546;7.400;2023-06-22T03:50:23;9.53;;;8.30;;
68947;SDS011;55996;49.546;7.400;2023-06-22T03:52:48;9.20;;;8.33;;
68947;SDS011;55996;49.546;7.400;2023-06-22T03:55:14;10.00;;;9.00;;
68947;SDS011;55996;49.546;7.400;2023-06-22T03:57:39;8.93;;;8.13;;
68947;SDS011;55996;49.546;7.400;2023-06-22T04:00:05;9.93;;;8.93;;
68947;SDS011;55996;49.546;7.400;2023-06-22T04:02:31;10.33;;;8.03;;
68947;SDS011;55996;49.546;7.400;2023-06-22T04:04:56;9.57;;;8.67;;
68947;SDS011;55996;49.546;7.400;2023-06-22T04:07:22;9.97;;;9.07;;
68947;SDS011;55996;49.546;7.400;2023-06-22T04:09:47;9.50;;;8.37;;
68947;SDS011;55996;49.546;7.400;2023-06-22T04:12:13;9.77;;;8.87;;
68947;SDS011;55996;49.546;7.400;2023-06-22T04:14:38;9.73;;;8.83;;
68947;SDS011;55996;49.546;7.400;2023-06-22T04:17:04;9.43;;;8.53;;
68947;SDS011;55996;49.546;7.400;2023-06-22T04:19:29;9.33;;;8.43;;
68947;SDS011;55996;49.546;7.400;2023-06-22T04:21:55;10.77;;;9.50;;
68947;SDS011;55996;49.546;7.400;2023-06-22T04:24:20;10.13;;;9.20;;
68947;SDS011;55996;49.546;7.400;2023-06-22T04:26:46;10.33;;;9.33;;
68947;SDS011;55996;49.546;7.400;2023-06-22T04:29:12;10.10;;;9.03;;
68947;SDS011;55996;49.546;7.400;2023-06-22T04:31:38;9.77;;;8.77;;
68947;SDS011;55996;49.546;7.400;2023-06-22T04:34:04;9.83;;;8.93;;
68947;SDS011;55996;49.546;7.400;2023-06-22T04:36:38;11.90;;;9.53;;
68947;SDS011;55996;49.546;7.400;2023-06-22T04:39:06;11.00;;;9.93;;
68947;SDS011;55996;49.546;7.400;2023-06-22T04:41:35;10.10;;;9.10;;
68947;SDS011;55996;49.546;7.400;2023-06-22T04:44:11;11.50;;;10.07;;
68947;SDS011;55996;49.546;7.400;2023-06-22T04:46:51;11.03;;;9.47;;
68947;SDS011;55996;49.546;7.400;2023-06-22T04:49:25;11.30;;;10.07;;
68947;SDS011;55996;49.546;7.400;2023-06-22T04:51:57;11.57;;;10.30;;
68947;SDS011;55996;49.546;7.400;2023-06-22T04:54:23;11.33;;;10.23;;
68947;SDS011;55996;49.546;7.400;2023-06-22T04:56:49;13.23;;;11.83;;
68947;SDS011;55996;49.546;7.400;2023-06-22T04:59:25;13.23;;;12.00;;
68947;SDS011;55996;49.546;7.400;2023-06-22T05:02:00;13.23;;;11.73;;
68947;SDS011;55996;49.546;7.400;2023-06-22T05:04:28;15.33;;;12.97;;
68947;SDS011;55996;49.546;7.400;2023-06-22T05:06:57;12.70;;;11.50;;
68947;SDS011;55996;49.546;7.400;2023-06-22T05:09:25;13.73;;;11.30;;
68947;SDS011;55996;49.546;7.400;2023-06-22T05:11:50;13.80;;;11.70;;
68947;SDS011;55996;49.546;7.400;2023-06-22T05:14:16;13.10;;;11.63;;
68947;SDS011;55996;49.546;7.400;2023-06-22T05:16:43;13.57;;;12.13;;
68947;SDS011;55996;49.546;7.400;2023-06-22T05:19:09;13.30;;;11.97;;
68947;SDS011;55996;49.546;7.400;2023-06-22T05:21:34;13.17;;;11.80;;
68947;SDS011;55996;49.546;7.400;2023-06-22T05:24:00;13.53;;;12.13;;
68947;SDS011;55996;49.546;7.400;2023-06-22T05:26:27;14.07;;;12.70;;
68947;SDS011;55996;49.546;7.400;2023-06-22T05:28:54;12.67;;;11.17;;
68947;SDS011;55996;49.546;7.400;2023-06-22T05:31:20;13.43;;;12.07;;
68947;SDS011;55996;49.546;7.400;2023-06-22T05:33:46;13.40;;;12.10;;
68947;SDS011;55996;49.546;7.400;2023-06-22T05:36:12;14.57;;;13.10;;
68947;SDS011;55996;49.546;7.400;2023-06-22T05:38:38;13.87;;;12.47;;
68947;SDS011;55996;49.546;7.400;2023-06-22T05:41:04;14.40;;;12.98;;
68947;SDS011;55996;49.546;7.400;2023-06-22T05:43:30;14.38;;;12.93;;
68947;SDS011;55996;49.546;7.400;2023-06-22T05:45:55;15.03;;;13.40;;
68947;SDS011;55996;49.546;7.400;2023-06-22T05:48:21;14.32;;;12.82;;
68947;SDS011;55996;49.546;7.400;2023-06-22T05:50:46;14.97;;;13.07;;
68947;SDS011;55996;49.546;7.400;2023-06-22T05:53:12;14.20;;;12.80;;
68947;SDS011;55996;49.546;7.400;2023-06-22T05:55:38;14.18;;;12.55;;
68947;SDS011;55996;49.546;7.400;2023-06-22T05:58:03;14.88;;;13.30;;
68947;SDS011;55996;49.546;7.400;2023-06-22T06:00:29;16.00;;;13.50;;
68947;SDS011;55996;49.546;7.400;2023-06-22T06:02:55;14.98;;;13.45;;
68947;SDS011;55996;49.546;7.400;2023-06-22T06:05:20;13.70;;;12.40;;
68947;SDS011;55996;49.546;7.400;2023-06-22T06:07:46;13.77;;;12.38;;
68947;SDS011;55996;49.546;7.400;2023-06-22T06:10:12;18.15;;;13.55;;
68947;SDS011;55996;49.546;7.400;2023-06-22T06:12:38;15.27;;;13.18;;
68947;SDS011;55996;49.546;7.400;2023-06-22T06:15:03;13.93;;;12.60;;
68947;SDS011;55996;49.546;7.400;2023-06-22T06:17:30;15.65;;;12.80;;
68947;SDS011;55996;49.546;7.400;2023-06-22T06:19:55;14.90;;;13.40;;
68947;SDS011;55996;49.546;7.400;2023-06-22T06:22:21;16.08;;;12.90;;
68947;SDS011;55996;49.546;7.400;2023-06-22T06:24:48;14.85;;;13.35;;
68947;SDS011;55996;49.546;7.400;2023-06-22T06:27:14;14.95;;;13.32;;
68947;SDS011;55996;49.546;7.400;2023-06-22T06:29:39;14.52;;;13.15;;
68947;SDS011;55996;49.546;7.400;2023-06-22T06:32:05;14.68;;;13.15;;
68947;SDS011;55996;49.546;7.400;2023-06-22T06:34:31;14.52;;;13.02;;
68947;SDS011;55996;49.546;7.400;2023-06-22T06:36:56;13.95;;;12.10;;
68947;SDS011;55996;49.546;7.400;2023-06-22T06:39:22;13.48;;;12.18;;
68947;SDS011;55996;49.546;7.400;2023-06-22T06:41:48;15.30;;;12.90;;
68947;SDS011;55996;49.546;7.400;2023-06-22T06:44:13;13.60;;;12.27;;
68947;SDS011;55996;49.546;7.400;2023-06-22T06:46:39;12.68;;;11.57;;
68947;SDS011;55996;49.546;7.400;2023-06-22T06:49:04;15.10;;;12.45;;
68947;SDS011;55996;49.546;7.400;2023-06-22T06:51:30;13.32;;;11.93;;
68947;SDS011;55996;49.546;7.400;2023-06-22T06:53:55;13.00;;;11.20;;
68947;SDS011;55996;49.546;7.400;2023-06-22T06:56:21;12.45;;;11.25;;
68947;SDS011;55996;49.546;7.400;2023-06-22T06:58:46;11.60;;;10.38;;
68947;SDS011;55996;49.546;7.400;2023-06-22T07:01:12;13.13;;;10.45;;
68947;SDS011;55996;49.546;7.400;2023-06-22T07:03:38;12.32;;;10.95;;
68947;SDS011;55996;49.546;7.400;2023-06-22T07:06:04;11.75;;;9.90;;
68947;SDS011;55996;49.546;7.400;2023-06-22T07:08:29;12.45;;;10.68;;
68947;SDS011;55996;49.546;7.400;2023-06-22T07:10:55;12.98;;;10.07;;
68947;SDS011;55996;49.546;7.400;2023-06-22T07:13:20;12.90;;;9.90;;
68947;SDS011;55996;49.546;7.400;2023-06-22T07:15:46;11.93;;;9.98;;
68947;SDS011;55996;49.546;7.400;2023-06-22T07:18:11;11.48;;;10.23;;
68947;SDS011;55996;49.546;7.400;2023-06-22T07:20:37;13.35;;;10.70;;
68947;SDS011;55996;49.546;7.400;2023-06-22T07:23:04;11.98;;;9.73;;
68947;SDS011;55996;49.546;7.400;2023-06-22T07:25:30;10.95;;;9.80;;
68947;SDS011;55996;49.546;7.400;2023-06-22T07:28:05;10.65;;;9.65;;
68947;SDS011;55996;49.546;7.400;2023-06-22T07:30:31;11.13;;;10.02;;
68947;SDS011;55996;49.546;7.400;2023-06-22T07:32:58;14.55;;;10.68;;
68947;SDS011;55996;49.546;7.400;2023-06-22T07:35:24;12.18;;;9.70;;
68947;SDS011;55996;49.546;7.400;2023-06-22T07:37:50;10.63;;;9.63;;
68947;SDS011;55996;49.546;7.400;2023-06-22T07:40:15;12.18;;;9.95;;
68947;SDS011;55996;49.546;7.400;2023-06-22T07:42:41;10.55;;;9.55;;
68947;SDS011;55996;49.546;7.400;2023-06-22T07:45:07;10.65;;;9.75;;
68947;SDS011;55996;49.546;7.400;2023-06-22T07:47:35;10.32;;;9.23;;
68947;SDS011;55996;49.546;7.400;2023-06-22T07:50:01;14.40;;;10.05;;
68947;SDS011;55996;49.546;7.400;2023-06-22T07:52:27;12.15;;;8.68;;
68947;SDS011;55996;49.546;7.400;2023-06-22T07:54:54;10.63;;;9.38;;
68947;SDS011;55996;49.546;7.400;2023-06-22T07:57:19;9.90;;;8.90;;
68947;SDS011;55996;49.546;7.400;2023-06-22T07:59:45;10.50;;;8.93;;
68947;SDS011;55996;49.546;7.400;2023-06-22T08:02:11;12.20;;;8.60;;
68947;SDS011;55996;49.546;7.400;2023-06-22T08:04:36;12.48;;;9.40;;
68947;SDS011;55996;49.546;7.400;2023-06-22T08:07:02;10.02;;;8.73;;
68947;SDS011;55996;49.546;7.400;2023-06-22T08:09:29;9.65;;;8.70;;
68947;SDS011;55996;49.546;7.400;2023-06-22T08:11:56;11.23;;;9.38;;
68947;SDS011;55996;49.546;7.400;2023-06-22T08:14:22;10.73;;;8.95;;
68947;SDS011;55996;49.546;7.400;2023-06-22T08:16:48;13.25;;;9.10;;
68947;SDS011;55996;49.546;7.400;2023-06-22T08:19:14;11.20;;;10.02;;
68947;SDS011;55996;49.546;7.400;2023-06-22T08:21:39;10.90;;;9.75;;
68947;SDS011;55996;49.546;7.400;2023-06-22T08:24:05;12.38;;;9.68;;
68947;SDS011;55996;49.546;7.400;2023-06-22T08:26:32;13.32;;;9.88;;
68947;SDS011;55996;49.546;7.400;2023-06-22T08:29:01;11.05;;;9.93;;
68947;SDS011;55996;49.546;7.400;2023-06-22T08:31:26;12.13;;;9.38;;
68947;SDS011;55996;49.546;7.400;2023-06-22T08:33:52;10.27;;;9.15;;
68947;SDS011;55996;49.546;7.400;2023-06-22T08:36:17;10.35;;;9.27;;
68947;SDS011;55996;49.546;7.400;2023-06-22T08:38:43;10.07;;;9.07;;
68947;SDS011;55996;49.546;7.400;2023-06-22T08:41:09;10.60;;;9.30;;
68947;SDS011;55996;49.546;7.400;2023-06-22T08:43:34;12.25;;;9.25;;
68947;SDS011;55996;49.546;7.400;2023-06-22T08:46:00;11.50;;;9.90;;
68947;SDS011;55996;49.546;7.400;2023-06-22T08:48:27;10.05;;;8.23;;
68947;SDS011;55996;49.546;7.400;2023-06-22T08:50:53;10.20;;;9.02;;
68947;SDS011;55996;49.546;7.400;2023-06-22T08:53:18;11.70;;;9.13;;
68947;SDS011;55996;49.546;7.400;2023-06-22T08:55:44;9.30;;;8.40;;
68947;SDS011;55996;49.546;7.400;2023-06-22T08:58:10;12.18;;;8.55;;
68947;SDS011;55996;49.546;7.400;2023-06-22T09:00:35;8.40;;;7.10;;
68947;SDS011;55996;49.546;7.400;2023-06-22T09:03:01;7.53;;;6.53;;
68947;SDS011;55996;49.546;7.400;2023-06-22T09:05:26;8.50;;;5.93;;
68947;SDS011;55996;49.546;7.400;2023-06-22T09:07:51;7.88;;;6.50;;
68947;SDS011;55996;49.546;7.400;2023-06-22T09:10:19;6.47;;;5.85;;
68947;SDS011;55996;49.546;7.400;2023-06-22T09:12:45;6.88;;;6.18;;
68947;SDS011;55996;49.546;7.400;2023-06-22T09:15:10;10.00;;;6.10;;
68947;SDS011;55996;49.546;7.400;2023-06-22T09:17:36;7.72;;;6.18;;
68947;SDS011;55996;49.546;7.400;2023-06-22T09:20:02;7.60;;;5.75;;
68947;SDS011;55996;49.546;7.400;2023-06-22T09:22:31;6.78;;;6.18;;
68947;SDS011;55996;49.546;7.400;2023-06-22T09:24:57;8.73;;;6.25;;
68947;SDS011;55996;49.546;7.400;2023-06-22T09:27:24;8.43;;;6.20;;
68947;SDS011;55996;49.546;7.400;2023-06-22T09:29:50;8.60;;;6.80;;
68947;SDS011;55996;49.546;7.400;2023-06-22T09:32:15;8.02;;;6.57;;
68947;SDS011;55996;49.546;7.400;2023-06-22T09:34:41;10.48;;;6.70;;
68947;SDS011;55996;49.546;7.400;2023-06-22T09:37:06;7.82;;;7.03;;
68947;SDS011;55996;49.546;7.400;2023-06-22T09:39:32;8.63;;;6.18;;
68947;SDS011;55996;49.546;7.400;2023-06-22T09:41:58;9.43;;;6.57;;
68947;SDS011;55996;49.546;7.400;2023-06-22T09:44:25;7.28;;;6.60;;
68947;SDS011;55996;49.546;7.400;2023-06-22T09:46:50;11.15;;;6.53;;
68947;SDS011;55996;49.546;7.400;2023-06-22T09:49:15;7.55;;;6.75;;
68947;SDS011;55996;49.546;7.400;2023-06-22T09:51:41;7.57;;;6.82;;
68947;SDS011;55996;49.546;7.400;2023-06-22T09:54:06;9.35;;;6.97;;
68947;SDS011;55996;49.546;7.400;2023-06-22T09:56:32;8.52;;;6.80;;
68947;SDS011;55996;49.546;7.400;2023-06-22T09:58:57;8.32;;;6.85;;
68947;SDS011;55996;49.546;7.400;2023-06-22T10:01:23;9.27;;;7.22;;
68947;SDS011;55996;49.546;7.400;2023-06-22T10:03:49;9.52;;;6.95;;
68947;SDS011;55996;49.546;7.400;2023-06-22T10:06:14;9.27;;;7.68;;
68947;SDS011;55996;49.546;7.400;2023-06-22T10:08:40;8.93;;;7.00;;
68947;SDS011;55996;49.546;7.400;2023-06-22T10:11:05;11.45;;;7.35;;
68947;SDS011;55996;49.546;7.400;2023-06-22T10:13:31;8.38;;;7.05;;
68947;SDS011;55996;49.546;7.400;2023-06-22T10:15:56;8.40;;;6.45;;
68947;SDS011;55996;49.546;7.400;2023-06-22T10:18:22;9.18;;;6.95;;
68947;SDS011;55996;49.546;7.400;2023-06-22T10:20:48;10.98;;;7.28;;
68947;SDS011;55996;49.546;7.400;2023-06-22T10:23:17;9.32;;;7.32;;
68947;SDS011;55996;49.546;7.400;2023-06-22T10:25:46;10.52;;;7.65;;
68947;SDS011;55996;49.546;7.400;2023-06-22T10:28:11;10.02;;;6.70;;
68947;SDS011;55996;49.546;7.400;2023-06-22T10:30:38;10.55;;;7.25;;
68947;SDS011;55996;49.546;7.400;2023-06-22T10:33:07;9.52;;;6.35;;
68947;SDS011;55996;49.546;7.400;2023-06-22T10:35:33;8.93;;;6.35;;
68947;SDS011;55996;49.546;7.400;2023-06-22T10:37:58;9.45;;;6.68;;
68947;SDS011;55996;49.546;7.400;2023-06-22T10:40:24;8.98;;;6.35;;
68947;SDS011;55996;49.546;7.400;2023-06-22T10:42:50;9.25;;;6.82;;
68947;SDS011;55996;49.546;7.400;2023-06-22T10:45:15;12.15;;;6.50;;
68947;SDS011;55996;49.546;7.400;2023-06-22T10:47:41;9.75;;;6.97;;
68947;SDS011;55996;49.546;7.400;2023-06-22T10:50:07;12.55;;;6.93;;
68947;SDS011;55996;49.546;7.400;2023-06-22T10:52:33;10.35;;;6.50;;
68947;SDS011;55996;49.546;7.400;2023-06-22T10:54:58;11.63;;;7.07;;
68947;SDS011;55996;49.546;7.400;2023-06-22T10:57:24;8.13;;;6.70;;
68947;SDS011;55996;49.546;7.400;2023-06-22T10:59:50;8.55;;;6.57;;
68947;SDS011;55996;49.546;7.400;2023-06-22T11:02:15;10.85;;;7.00;;
68947;SDS011;55996;49.546;7.400;2023-06-22T11:04:40;8.07;;;6.85;;
68947;SDS011;55996;49.546;7.400;2023-06-22T11:07:06;9.02;;;7.05;;
68947;SDS011;55996;49.546;7.400;2023-06-22T11:09:31;12.32;;;6.97;;
68947;SDS011;55996;49.546;7.400;2023-06-22T11:11:57;11.60;;;6.68;;
68947;SDS011;55996;49.546;7.400;2023-06-22T11:14:24;10.48;;;7.13;;
68947;SDS011;55996;49.546;7.400;2023-06-22T11:16:50;13.70;;;6.97;;
68947;SDS011;55996;49.546;7.400;2023-06-22T11:19:15;11.65;;;6.93;;
68947;SDS011;55996;49.546;7.400;2023-06-22T11:21:40;11.68;;;6.88;;
68947;SDS011;55996;49.546;7.400;2023-06-22T11:24:06;10.57;;;6.57;;
68947;SDS011;55996;49.546;7.400;2023-06-22T11:26:31;15.25;;;6.57;;
68947;SDS011;55996;49.546;7.400;2023-06-22T11:28:58;9.20;;;7.25;;
68947;SDS011;55996;49.546;7.400;2023-06-22T11:31:24;9.75;;;6.75;;
68947;SDS011;55996;49.546;7.400;2023-06-22T11:33:50;12.15;;;6.70;;
68947;SDS011;55996;49.546;7.400;2023-06-22T11:36:15;11.95;;;6.72;;
68947;SDS011;55996;49.546;7.400;2023-06-22T11:38:41;9.60;;;5.90;;
68947;SDS011;55996;49.546;7.400;2023-06-22T11:41:08;12.88;;;6.65;;
68947;SDS011;55996;49.546;7.400;2023-06-22T11:43:34;8.13;;;5.90;;
68947;SDS011;55996;49.546;7.400;2023-06-22T11:46:01;10.00;;;5.93;;
68947;SDS011;55996;49.546;7.400;2023-06-22T11:48:27;10.82;;;6.18;;
68947;SDS011;55996;49.546;7.400;2023-06-22T11:50:52;9.27;;;5.85;;
68947;SDS011;55996;49.546;7.400;2023-06-22T11:53:20;11.10;;;6.53;;
68947;SDS011;55996;49.546;7.400;2023-06-22T11:55:46;8.90;;;6.40;;
68947;SDS011;55996;49.546;7.400;2023-06-22T11:58:12;7.55;;;6.10;;
68947;SDS011;55996;49.546;7.400;2023-06-22T12:00:38;10.57;;;6.13;;
68947;SDS011;55996;49.546;7.400;2023-06-22T12:03:03;9.25;;;6.20;;
68947;SDS011;55996;49.546;7.400;2023-06-22T12:05:29;10.75;;;5.57;;
68947;SDS011;55996;49.546;7.400;2023-06-22T12:07:54;10.18;;;5.70;;
68947;SDS011;55996;49.546;7.400;2023-06-22T12:10:21;7.50;;;5.85;;
68947;SDS011;55996;49.546;7.400;2023-06-22T12:12:47;9.07;;;5.57;;
68947;SDS011;55996;49.546;7.400;2023-06-22T12:15:13;8.38;;;5.90;;
68947;SDS011;55996;49.546;7.400;2023-06-22T12:17:38;8.77;;;5.93;;
68947;SDS011;55996;49.546;7.400;2023-06-22T12:20:05;9.73;;;6.18;;
68947;SDS011;55996;49.546;7.400;2023-06-22T12:22:35;8.35;;;6.00;;
68947;SDS011;55996;49.546;7.400;2023-06-22T12:25:02;13.20;;;6.30;;
68947;SDS011;55996;49.546;7.400;2023-06-22T12:27:29;12.27;;;6.25;;
68947;SDS011;55996;49.546;7.400;2023-06-22T12:29:55;12.00;;;5.53;;
68947;SDS011;55996;49.546;7.400;2023-06-22T12:32:21;9.55;;;5.65;;
68947;SDS011;55996;49.546;7.400;2023-06-22T12:34:47;12.40;;;5.75;;
68947;SDS011;55996;49.546;7.400;2023-06-22T12:37:12;11.75;;;6.28;;
68947;SDS011;55996;49.546;7.400;2023-06-22T12:39:40;12.15;;;6.20;;
68947;SDS011;55996;49.546;7.400;2023-06-22T12:42:06;9.50;;;5.82;;
68947;SDS011;55996;49.546;7.400;2023-06-22T12:44:34;12.35;;;6.55;;
68947;SDS011;55996;49.546;7.400;2023-06-22T12:46:59;8.63;;;6.18;;
68947;SDS011;55996;49.546;7.400;2023-06-22T12:49:25;10.73;;;5.55;;
68947;SDS011;55996;49.546;7.400;2023-06-22T12:51:51;13.55;;;6.35;;
68947;SDS011;55996;49.546;7.400;2023-06-22T12:54:16;12.35;;;5.90;;
68947;SDS011;55996;49.546;7.400;2023-06-22T12:56:42;8.82;;;5.35;;
68947;SDS011;55996;49.546;7.400;2023-06-22T12:59:09;10.95;;;5.40;;
68947;SDS011;55996;49.546;7.400;2023-06-22T13:01:35;15.27;;;5.57;;
68947;SDS011;55996;49.546;7.400;2023-06-22T13:04:00;16.13;;;6.22;;
68947;SDS011;55996;49.546;7.400;2023-06-22T13:06:26;12.85;;;5.68;;
68947;SDS011;55996;49.546;7.400;2023-06-22T13:08:52;14.35;;;5.95;;
68947;SDS011;55996;49.546;7.400;2023-06-22T13:11:17;11.05;;;5.60;;
68947;SDS011;55996;49.546;7.400;2023-06-22T13:13:44;12.57;;;5.78;;
68947;SDS011;55996;49.546;7.400;2023-06-22T13:16:10;13.70;;;6.25;;
68947;SDS011;55996;49.546;7.400;2023-06-22T13:18:37;10.18;;;6.03;;
68947;SDS011;55996;49.546;7.400;2023-06-22T13:21:02;12.60;;;6.05;;
68947;SDS011;55996;49.546;7.400;2023-06-22T13:23:28;10.15;;;5.85;;
68947;SDS011;55996;49.546;7.400;2023-06-22T13:25:54;15.32;;;6.50;;
68947;SDS011;55996;49.546;7.400;2023-06-22T13:28:20;15.85;;;5.80;;
68947;SDS011;55996;49.546;7.400;2023-06-22T13:30:46;9.73;;;5.22;;
68947;SDS011;55996;49.546;7.400;2023-06-22T13:33:12;14.68;;;5.35;;
68947;SDS011;55996;49.546;7.400;2023-06-22T13:35:41;12.73;;;5.22;;
68947;SDS011;55996;49.546;7.400;2023-06-22T13:38:09;16.60;;;5.70;;
68947;SDS011;55996;49.546;7.400;2023-06-22T13:40:35;12.57;;;5.63;;
68947;SDS011;55996;49.546;7.400;2023-06-22T13:43:02;14.68;;;5.72;;
68947;SDS011;55996;49.546;7.400;2023-06-22T13:45:28;18.23;;;5.45;;
68947;SDS011;55996;49.546;7.400;2023-06-22T13:47:53;18.63;;;5.65;;
68947;SDS011;55996;49.546;7.400;2023-06-22T13:50:19;14.15;;;5.50;;
68947;SDS011;55996;49.546;7.400;2023-06-22T13:52:44;17.40;;;5.00;;
68947;SDS011;55996;49.546;7.400;2023-06-22T13:55:10;11.55;;;5.05;;
68947;SDS011;55996;49.546;7.400;2023-06-22T13:57:35;13.27;;;5.03;;
68947;SDS011;55996;49.546;7.400;2023-06-22T14:00:02;14.52;;;4.45;;
68947;SDS011;55996;49.546;7.400;2023-06-22T14:02:30;17.52;;;4.90;;
68947;SDS011;55996;49.546;7.400;2023-06-22T14:04:56;14.80;;;4.88;;
68947;SDS011;55996;49.546;7.400;2023-06-22T14:07:21;16.10;;;5.03;;
68947;SDS011;55996;49.546;7.400;2023-06-22T14:09:46;14.98;;;5.32;;
68947;SDS011;55996;49.546;7.400;2023-06-22T14:12:12;15.63;;;4.82;;
68947;SDS011;55996;49.546;7.400;2023-06-22T14:14:37;12.45;;;4.65;;
68947;SDS011;55996;49.546;7.400;2023-06-22T14:17:03;16.77;;;5.10;;
68947;SDS011;55996;49.546;7.400;2023-06-22T14:19:29;18.05;;;5.10;;
68947;SDS011;55996;49.546;7.400;2023-06-22T14:21:55;15.88;;;5.25;;
68947;SDS011;55996;49.546;7.400;2023-06-22T14:24:21;12.88;;;5.40;;
68947;SDS011;55996;49.546;7.400;2023-06-22T14:26:47;13.45;;;4.88;;
68947;SDS011;55996;49.546;7.400;2023-06-22T14:29:12;12.25;;;4.75;;
68947;SDS011;55996;49.546;7.400;2023-06-22T14:31:38;15.90;;;4.95;;
68947;SDS011;55996;49.546;7.400;2023-06-22T14:34:03;24.30;;;5.43;;
68947;SDS011;55996;49.546;7.400;2023-06-22T14:36:30;17.70;;;5.22;;
68947;SDS011;55996;49.546;7.400;2023-06-22T14:38:56;12.80;;;4.47;;
68947;SDS011;55996;49.546;7.400;2023-06-22T14:41:21;21.10;;;4.75;;
68947;SDS011;55996;49.546;7.400;2023-06-22T14:43:47;8.75;;;4.32;;
68947;SDS011;55996;49.546;7.400;2023-06-22T14:46:17;10.18;;;4.53;;